Time;durP1;ratioP1;P1;durP2;ratioP2;P2;SDS_P1;SDS_P2;PMS_P1;PMS_P2;Temp;Humidity;BMP_temperature;BMP_pressure;BME280_temperature;BME280_humidity;BME280_pressure;Samples;Min_cycle;Max_cycle;Signal;HPM_P1;HPM_P2
2022/01/23 00:00:05;;;;;;;9.68;5.80;;;-0.20;99.90;;;;;;5073630;28;20082;-54
2022/01/23 00:02:34;;;;;;;7.03;3.97;;;-0.20;99.90;;;;;;5010320;28;20036;-53
2022/01/23 00:05:06;;;;;;;6.20;4.13;;;-0.20;99.90;;;;;;5039090;28;20040;-52
2022/01/23 00:07:34;;;;;;;6.50;3.65;;;-0.20;99.90;;;;;;5073432;28;20024;-54
2022/01/23 00:10:01;;;;;;;7.85;4.85;;;-0.50;99.90;;;;;;5073511;28;20049;-52
2022/01/23 00:12:30;;;;;;;8.25;4.68;;;-0.40;99.90;;;;;;5073385;28;20074;-52
2022/01/23 00:17:40;;;;;;;6.30;3.90;;;-0.40;99.90;;;;;;5073917;28;20046;-52
2022/01/23 00:20:09;;;;;;;7.10;4.88;;;-0.40;99.90;;;;;;5005556;28;20036;-55
2022/01/23 00:30:32;;;;;;;6.75;4.07;;;-0.30;99.90;;;;;;5073204;28;20043;-55
2022/01/23 00:33:00;;;;;;;8.70;3.97;;;-0.30;99.90;;;;;;5038528;28;20042;-52
2022/01/23 00:35:27;;;;;;;6.00;4.13;;;-0.40;99.90;;;;;;5073218;28;20040;-57
2022/01/23 00:37:54;;;;;;;8.82;4.90;;;-0.50;99.90;;;;;;5073164;28;20051;-54
2022/01/23 00:40:22;;;;;;;6.43;4.00;;;-0.40;99.90;;;;;;5073100;28;20460;-53
2022/01/23 00:42:48;;;;;;;6.35;3.97;;;-0.40;99.90;;;;;;5073085;28;20043;-54
2022/01/23 00:45:34;;;;;;;6.35;3.85;;;-0.50;99.90;;;;;;5073117;28;20480;-52
2022/01/23 00:48:07;;;;;;;6.68;4.53;;;-0.40;99.90;;;;;;5073065;28;20049;-51
2022/01/23 00:50:38;;;;;;;6.95;4.63;;;-0.40;99.90;;;;;;5072976;28;20040;-53
2022/01/23 00:53:10;;;;;;;7.43;4.35;;;-0.50;99.90;;;;;;5030893;28;20045;-53
2022/01/23 00:55:40;;;;;;;7.47;4.55;;;-0.50;99.90;;;;;;5030828;28;20038;-55
2022/01/23 00:58:06;;;;;;;7.50;3.70;;;-0.50;99.90;;;;;;5014472;28;20370;-55
2022/01/23 01:00:32;;;;;;;6.28;3.70;;;-0.60;99.90;;;;;;5031096;28;20137;-51
2022/01/23 01:02:58;;;;;;;6.88;3.83;;;-0.70;99.90;;;;;;5030717;28;20045;-55
2022/01/23 01:05:26;;;;;;;7.75;4.30;;;-0.60;99.90;;;;;;4998109;28;20183;-51
2022/01/23 01:07:59;;;;;;;5.38;3.80;;;-0.50;99.90;;;;;;5030733;28;20463;-54
2022/01/23 01:10:33;;;;;;;6.55;3.88;;;-0.50;99.90;;;;;;5034524;28;20512;-55
2022/01/23 01:13:01;;;;;;;8.32;4.47;;;-0.60;99.90;;;;;;5037405;28;20045;-54
2022/01/23 01:15:39;;;;;;;7.75;4.32;;;-0.60;99.90;;;;;;5005167;28;20045;-52
2022/01/23 01:31:47;;;;;;;8.00;4.22;;;-0.70;99.90;;;;;;5046996;28;20086;-55
2022/01/23 01:34:29;;;;;;;7.95;4.65;;;-0.70;99.90;;;;;;5044117;28;20032;-54
2022/01/23 01:36:56;;;;;;;6.63;3.78;;;-0.70;99.90;;;;;;5076239;28;20119;-51
2022/01/23 01:39:25;;;;;;;9.88;5.03;;;-0.80;99.90;;;;;;5076254;28;20032;-52
2022/01/23 01:41:52;;;;;;;7.55;4.65;;;-0.80;99.90;;;;;;5076101;28;20028;-56
2022/01/23 01:44:19;;;;;;;7.80;4.47;;;-0.70;99.90;;;;;;5076232;28;20029;-49
2022/01/23 01:46:45;;;;;;;8.73;4.55;;;-0.80;99.90;;;;;;5076156;28;20027;-51
2022/01/23 01:49:11;;;;;;;8.70;5.45;;;-0.80;99.90;;;;;;5075776;28;20048;-55
2022/01/23 01:51:39;;;;;;;7.78;4.95;;;-0.70;99.90;;;;;;5040837;28;20056;-54
2022/01/23 01:54:18;;;;;;;7.18;4.72;;;-0.80;99.90;;;;;;5075310;28;20070;-55
2022/01/23 01:59:49;;;;;;;8.32;4.65;;;-0.70;99.90;;;;;;4994514;28;20107;-55
2022/01/23 02:10:34;;;;;;;7.20;4.90;;;-0.90;99.90;;;;;;4994478;28;20476;-56
2022/01/23 02:16:06;;;;;;;8.18;4.47;;;-0.80;99.90;;;;;;4994261;28;20033;-51
2022/01/23 02:51:28;;;;;;;21.05;11.10;;;-0.10;99.90;;;;;;5045391;28;20556;-52
2022/01/23 02:56:44;;;;;;;9.43;6.80;;;-0.10;99.90;;;;;;5074955;28;20055;-53
2022/01/23 02:59:21;;;;;;;13.73;9.07;;;-0.10;99.90;;;;;;5074832;28;20029;-55
2022/01/23 03:02:13;;;;;;;12.25;7.75;;;0.00;99.90;;;;;;5042887;28;20075;-54
2022/01/23 03:04:37;;;;;;;9.98;7.00;;;0.00;99.90;;;;;;5074378;28;20086;-52
2022/01/23 03:30:33;;;;;;;9.10;6.43;;;0.20;99.90;;;;;;5043668;28;20129;-56
2022/01/23 03:32:59;;;;;;;8.18;4.88;;;0.10;99.90;;;;;;5074147;28;20038;-55
2022/01/23 03:35:25;;;;;;;12.80;6.88;;;0.10;99.90;;;;;;5074142;28;20028;-55
2022/01/23 03:37:51;;;;;;;21.55;12.32;;;0.20;99.90;;;;;;5074059;28;20542;-56
2022/01/23 03:40:18;;;;;;;7.03;5.22;;;0.20;99.90;;;;;;5073947;28;20036;-57
2022/01/23 03:42:45;;;;;;;5.80;3.80;;;0.30;99.90;;;;;;5074110;28;20031;-56
2022/01/23 03:49:31;;;;;;;7.15;4.00;;;0.30;99.90;;;;;;5074031;28;20059;-51
2022/01/23 03:50:47;;;;;;;6.93;3.72;;;0.30;99.90;;;;;;5073668;28;20097;-54
2022/01/23 03:53:14;;;;;;;5.97;3.63;;;0.30;99.90;;;;;;5073780;28;20036;-54
2022/01/23 03:55:40;;;;;;;6.10;4.00;;;0.40;99.90;;;;;;5073793;28;20032;-54
2022/01/23 03:58:05;;;;;;;5.63;3.67;;;0.40;99.90;;;;;;5073713;28;20058;-54
2022/01/23 04:00:32;;;;;;;6.15;3.60;;;0.40;99.90;;;;;;5073544;28;20033;-56
2022/01/23 04:02:58;;;;;;;5.68;3.53;;;0.30;99.90;;;;;;5073809;28;20431;-55
2022/01/23 04:05:24;;;;;;;6.40;3.60;;;0.30;99.90;;;;;;5073599;28;20032;-54
2022/01/23 04:07:50;;;;;;;5.65;3.42;;;0.30;99.90;;;;;;5038559;28;20045;-58
2022/01/23 04:10:18;;;;;;;5.13;3.45;;;0.30;99.90;;;;;;5073253;28;20040;-57
2022/01/23 04:12:57;;;;;;;5.78;3.45;;;0.30;99.90;;;;;;5073591;28;20032;-53
2022/01/23 05:06:40;;;;;;;7.47;4.45;;;0.20;99.90;;;;;;5022382;28;20071;-54
2022/01/23 05:09:07;;;;;;;8.55;4.47;;;-0.30;99.90;;;;;;5072927;28;20055;-56
2022/01/23 05:11:33;;;;;;;6.75;4.88;;;-0.50;99.90;;;;;;5073157;28;20070;-52
2022/01/23 05:14:01;;;;;;;7.53;4.50;;;-0.40;99.90;;;;;;5037886;28;20049;-53
2022/01/23 05:16:27;;;;;;;8.13;4.80;;;-0.50;99.90;;;;;;5072699;28;20046;-55
2022/01/23 05:18:54;;;;;;;10.05;4.47;;;-0.70;99.90;;;;;;5021069;28;20040;-51
2022/01/23 05:23:48;;;;;;;12.05;6.03;;;-1.00;99.90;;;;;;5072782;28;20111;-56
2022/01/23 05:26:14;;;;;;;9.93;5.53;;;-1.20;99.90;;;;;;5004214;28;20128;-54
2022/01/23 05:28:40;;;;;;;7.75;4.82;;;-1.00;99.90;;;;;;5069515;28;20032;-54
2022/01/23 05:31:05;;;;;;;7.97;4.85;;;-0.80;99.90;;;;;;5021245;28;20512;-54
2022/01/23 05:33:32;;;;;;;9.82;5.20;;;;;;;;;;5021174;28;20036;-54
2022/01/23 05:35:57;;;;;;;9.43;5.65;;;-0.90;99.90;;;;;;5072823;28;20475;-53
2022/01/23 05:38:23;;;;;;;6.53;4.60;;;-0.60;99.90;;;;;;5037391;28;20044;-55
2022/01/23 05:40:56;;;;;;;7.97;5.72;;;-0.50;99.90;;;;;;5021210;28;20429;-54
2022/01/23 05:43:22;;;;;;;9.75;5.30;;;-0.40;99.90;;;;;;5072622;28;20036;-52
2022/01/23 05:45:49;;;;;;;8.68;5.45;;;-0.30;99.90;;;;;;5037004;28;20068;-54
2022/01/23 05:48:15;;;;;;;8.27;5.93;;;-0.20;99.90;;;;;;5054980;28;20071;-54
2022/01/23 05:50:41;;;;;;;7.32;4.63;;;0.00;99.90;;;;;;5052538;28;20370;-56
2022/01/23 05:53:07;;;;;;;8.45;5.30;;;-0.10;99.90;;;;;;5052480;28;20033;-55
2022/01/23 05:55:32;;;;;;;8.38;6.00;;;0.00;99.90;;;;;;5052662;28;20033;-55
2022/01/23 05:57:58;;;;;;;8.48;5.60;;;0.00;99.90;;;;;;5055502;28;20040;-57
2022/01/23 06:00:24;;;;;;;17.42;10.00;;;-0.10;99.90;;;;;;5056010;28;20029;-53
2022/01/23 06:02:49;;;;;;;43.15;20.13;;;-0.10;99.90;;;;;;5055952;28;20032;-53
2022/01/23 06:05:15;;;;;;;41.53;19.45;;;-0.20;99.90;;;;;;5025856;28;20055;-50
2022/01/23 06:07:42;;;;;;;51.58;25.48;;;-0.10;99.90;;;;;;5067346;28;20052;-53
2022/01/23 06:10:18;;;;;;;18.08;10.77;;;-0.10;99.90;;;;;;5046870;28;20403;-56
2022/01/23 06:12:44;;;;;;;19.05;10.38;;;-0.20;99.90;;;;;;5055808;28;20465;-52
2022/01/23 06:15:10;;;;;;;18.05;10.35;;;-0.20;99.90;;;;;;5055782;28;20082;-53
2022/01/23 06:17:36;;;;;;;14.15;7.53;;;-0.20;99.90;;;;;;5053389;28;20041;-59
2022/01/23 06:20:02;;;;;;;17.42;9.30;;;-0.20;99.90;;;;;;5071502;28;20033;-55
2022/01/23 06:22:28;;;;;;;13.57;8.20;;;-0.20;99.90;;;;;;5013186;28;20036;-54
2022/01/23 06:24:53;;;;;;;19.50;10.35;;;0.00;99.90;;;;;;5067619;28;20032;-54
2022/01/23 06:27:19;;;;;;;11.15;6.93;;;-0.10;99.90;;;;;;5061016;28;20131;-54
2022/01/23 06:29:46;;;;;;;8.57;5.50;;;;;;;;;;5004087;28;20048;-57
2022/01/23 06:32:13;;;;;;;11.13;6.68;;;-0.20;99.90;;;;;;5055259;28;20029;-56
2022/01/23 06:34:39;;;;;;;10.75;5.50;;;-0.10;99.90;;;;;;5055516;28;20040;-55
2022/01/23 06:37:05;;;;;;;11.70;6.53;;;-0.50;99.90;;;;;;5055403;28;20037;-55
2022/01/23 06:39:31;;;;;;;12.10;6.35;;;-0.40;99.90;;;;;;5070914;28;20111;-54
2022/01/23 06:41:57;;;;;;;22.88;13.63;;;-0.40;99.90;;;;;;5075252;28;20103;-56
2022/01/23 06:44:23;;;;;;;10.52;6.28;;;-0.40;99.90;;;;;;5015101;28;20041;-55
2022/01/23 06:46:49;;;;;;;9.43;5.95;;;0.90;99.90;;;;;;4981682;28;20042;-69
2022/01/23 06:49:15;;;;;;;17.38;9.55;;;2.80;99.90;;;;;;4998713;28;20054;-58
2022/01/23 06:51:42;;;;;;;14.18;9.75;;;4.60;99.90;;;;;;4996015;28;20113;-55
2022/01/23 06:54:08;;;;;;;112.93;71.60;;;6.60;99.90;;;;;;4996494;28;20141;-57
2022/01/23 06:56:34;;;;;;;102.68;68.32;;;7.50;98.20;;;;;;4994415;28;20031;-58
2022/01/23 06:59:00;;;;;;;26.17;16.98;;;9.20;95.40;;;;;;4996966;28;20085;-51
2022/01/23 07:01:26;;;;;;;88.40;62.90;;;9.70;99.20;;;;;;4996876;28;20042;-52
2022/01/23 07:03:52;;;;;;;96.15;80.47;;;;;;;;;;4978330;28;20042;-52
2022/01/23 07:06:18;;;;;;;534.78;486.13;;;12.00;90.10;;;;;;4994028;28;20073;-53
2022/01/23 07:08:44;;;;;;;249.13;197.75;;;12.90;99.90;;;;;;4976764;28;20046;-55
2022/01/23 07:11:10;;;;;;;11.82;6.90;;;;;;;;;;4993425;28;20100;-56
2022/01/23 07:13:36;;;;;;;11.48;8.32;;;;;;;;;;4993691;28;20030;-55
2022/01/23 07:16:06;;;;;;;15.73;9.80;;;13.90;79.30;;;;;;5025865;28;20092;-55
2022/01/23 07:18:32;;;;;;;7.60;5.90;;;;;;;;;;5017174;28;20098;-54
2022/01/23 07:20:58;;;;;;;8.32;6.30;;;;;;;;;;5034510;28;20477;-52
2022/01/23 07:23:24;;;;;;;10.07;6.90;;;12.90;99.90;;;;;;5034675;28;20489;-54
2022/01/23 07:25:51;;;;;;;7.45;5.53;;;;;;;;;;5016820;28;20044;-55
2022/01/23 07:28:21;;;;;;;8.23;6.15;;;;;;;;;;5013254;28;20504;-55
2022/01/23 07:30:58;;;;;;;13.57;7.00;;;10.60;77.40;;;;;;5014718;28;20161;-51
2022/01/23 07:33:24;;;;;;;76.38;43.75;;;10.10;80.10;;;;;;5014845;28;20089;-58
2022/01/23 07:35:50;;;;;;;141.30;75.30;;;9.90;79.90;;;;;;5001700;28;20069;-55
2022/01/23 07:38:17;;;;;;;790.85;709.78;;;;;;;;;;4969257;28;20091;-51
2022/01/23 07:40:44;;;;;;;26.73;14.55;;;;;;;;;;5028573;28;20576;-54
2022/01/23 07:43:10;;;;;;;21.98;11.25;;;5.50;95.70;;;;;;5011103;28;20045;-52
2022/01/23 07:45:36;;;;;;;211.32;144.63;;;4.90;91.50;;;;;;5004364;28;20486;-51
2022/01/23 07:48:02;;;;;;;62.85;26.90;;;4.60;91.80;;;;;;5048994;28;20392;-53
2022/01/23 07:50:27;;;;;;;183.82;165.40;;;3.70;91.40;;;;;;5073257;28;20090;-53
2022/01/23 07:52:53;;;;;;;9.77;6.05;;;3.70;91.80;;;;;;5068245;28;20445;-55
2022/01/23 07:55:19;;;;;;;77.88;28.65;;;3.20;92.60;;;;;;5067483;28;20115;-56
2022/01/23 07:57:45;;;;;;;92.50;40.63;;;2.50;93.50;;;;;;5008526;28;20037;-53
2022/01/23 08:00:12;;;;;;;26.85;15.23;;;2.20;94.50;;;;;;5061659;28;20368;-50
2022/01/23 08:02:39;;;;;;;11.65;10.07;;;;;;;;;;5002255;28;20068;-53
2022/01/23 08:05:05;;;;;;;11.93;8.57;;;6.40;99.90;;;;;;5069288;28;20043;-57
2022/01/23 08:07:31;;;;;;;13.02;9.63;;;7.80;90.90;;;;;;5062283;28;20031;-57
2022/01/23 08:09:58;;;;;;;18.60;13.43;;;;;;;;;;5028163;28;20048;-53
2022/01/23 08:12:25;;;;;;;24.30;19.08;;;;;;;;;;5060671;28;20028;-53
2022/01/23 08:14:51;;;;;;;54.97;51.90;;;9.90;99.90;;;;;;5017480;28;20067;-55
2022/01/23 08:17:19;;;;;;;14.68;13.32;;;10.30;82.70;;;;;;5052533;28;20029;-55
2022/01/23 08:19:46;;;;;;;29.30;26.58;;;10.50;81.90;;;;;;5066751;28;20029;-51
2022/01/23 08:22:11;;;;;;;8.85;7.97;;;11.90;81.70;;;;;;5071496;28;20066;-53
2022/01/23 08:24:37;;;;;;;13.93;12.60;;;10.90;80.40;;;;;;5053204;28;20153;-51
2022/01/23 08:27:03;;;;;;;44.42;36.10;;;11.40;81.00;;;;;;5053461;28;20032;-53
2022/01/23 08:29:29;;;;;;;10.02;8.48;;;;;;;;;;5034335;28;20053;-55
2022/01/23 08:31:55;;;;;;;13.52;12.10;;;13.00;78.20;;;;;;5036913;28;20070;-51
2022/01/23 08:34:21;;;;;;;12.18;11.15;;;;;;;;;;5059419;28;20036;-56
2022/01/23 08:36:47;;;;;;;90.68;80.80;;;;;;;;;;5052262;28;20025;-54
2022/01/23 08:39:15;;;;;;;134.75;120.22;;;;;;;;;;5016801;28;20398;-54
2022/01/23 08:41:50;;;;;;;9.15;8.20;;;14.60;99.90;;;;;;5052312;28;20041;-55
2022/01/23 08:44:17;;;;;;;9.02;8.13;;;14.20;95.70;;;;;;5051843;28;20539;-54
2022/01/23 08:46:43;;;;;;;10.18;8.68;;;15.20;76.20;;;;;;5033380;28;20041;-55
2022/01/23 08:49:09;;;;;;;14.82;13.60;;;;;;;;;;4967228;28;20558;-55
2022/01/23 08:51:36;;;;;;;9.35;8.32;;;15.30;78.80;;;;;;5058288;28;20060;-55
2022/01/23 08:54:03;;;;;;;10.18;9.07;;;;;;;;;;5071763;28;20044;-54
2022/01/23 08:56:30;;;;;;;9.50;8.60;;;15.60;72.90;;;;;;5071980;28;20036;-54
2022/01/23 08:58:56;;;;;;;8.75;7.85;;;13.80;71.40;;;;;;5033389;28;20048;-56
2022/01/23 09:01:23;;;;;;;9.75;8.65;;;12.90;74.00;;;;;;5052268;28;20040;-55
2022/01/23 09:03:49;;;;;;;9.88;8.88;;;12.50;74.30;;;;;;5051889;28;20473;-54
2022/01/23 09:06:15;;;;;;;9.82;7.55;;;11.60;96.80;;;;;;5009767;28;20043;-55
2022/01/23 09:08:41;;;;;;;7.00;5.95;;;10.80;95.40;;;;;;5062779;28;20053;-53
2022/01/23 09:11:24;;;;;;;9.88;7.75;;;;;;;;;;5009968;28;20083;-55
2022/01/23 09:16:17;;;;;;;32.78;24.10;;;10.20;78.40;;;;;;5060585;28;20059;-51
2022/01/23 09:18:43;;;;;;;10.18;9.35;;;;;;;;;;4993891;28;20033;-53
2022/01/23 09:21:11;;;;;;;13.15;12.25;;;11.50;77.50;;;;;;5052036;28;20021;-54
2022/01/23 09:23:37;;;;;;;12.75;11.80;;;10.80;86.90;;;;;;5051858;28;20033;-53
2022/01/23 09:26:14;;;;;;;16.77;15.88;;;10.30;76.60;;;;;;5052241;28;20033;-54
2022/01/23 09:28:40;;;;;;;69.32;41.53;;;10.30;77.90;;;;;;5052908;28;20033;-54
2022/01/23 09:31:06;;;;;;;28.48;18.58;;;10.40;92.50;;;;;;5054351;28;20041;-54
2022/01/23 09:33:32;;;;;;;14.90;13.63;;;10.60;77.10;;;;;;5048523;28;20032;-53
2022/01/23 09:35:58;;;;;;;44.35;28.40;;;9.40;78.10;;;;;;5047279;28;20033;-52
2022/01/23 09:38:23;;;;;;;47.42;24.33;;;10.20;77.50;;;;;;5066225;28;20033;-52
2022/01/23 09:40:54;;;;;;;19.20;17.65;;;9.30;79.10;;;;;;5064994;28;20025;-52
2022/01/23 09:43:22;;;;;;;27.20;25.42;;;9.30;78.80;;;;;;5028989;28;20115;-54
2022/01/23 09:45:51;;;;;;;45.58;27.52;;;8.00;79.50;;;;;;5065328;28;20040;-54
2022/01/23 09:48:17;;;;;;;22.00;20.23;;;8.20;80.40;;;;;;5066449;28;20072;-52
2022/01/23 09:50:47;;;;;;;74.53;42.70;;;7.70;80.80;;;;;;5031591;28;20401;-52
2022/01/23 09:53:13;;;;;;;25.70;23.23;;;7.40;81.00;;;;;;5045597;28;20045;-54
2022/01/23 09:55:43;;;;;;;70.95;47.50;;;7.90;81.30;;;;;;5064565;28;20031;-55
2022/01/23 09:58:10;;;;;;;18.05;16.27;;;7.50;80.90;;;;;;5062116;28;20469;-53
2022/01/23 10:00:38;;;;;;;28.63;26.27;;;;;;;;;;5066519;28;20043;-51
2022/01/23 10:03:04;;;;;;;28.05;24.90;;;;;;;;;;5063803;28;20145;-50
2022/01/23 10:05:30;;;;;;;36.60;22.42;;;7.30;89.90;;;;;;5059671;28;20470;-53
2022/01/23 10:07:57;;;;;;;74.00;57.05;;;7.80;93.70;;;;;;5056037;28;20112;-54
2022/01/23 10:10:27;;;;;;;96.70;58.50;;;8.20;82.30;;;;;;5060782;28;20049;-52
2022/01/23 10:12:57;;;;;;;58.00;47.22;;;8.20;81.40;;;;;;5065047;28;20036;-52
2022/01/23 10:15:25;;;;;;;45.58;31.10;;;8.20;82.30;;;;;;5017700;28;20072;-51
2022/01/23 10:17:55;;;;;;;49.35;36.33;;;8.00;82.70;;;;;;5063617;28;20061;-53
2022/01/23 10:20:22;;;;;;;42.03;15.60;;;7.40;82.80;;;;;;5063762;28;20072;-50
2022/01/23 10:22:51;;;;;;;67.68;37.15;;;6.90;83.40;;;;;;5045824;28;20410;-46
2022/01/23 10:25:40;;;;;;;32.85;13.20;;;7.10;84.00;;;;;;5066493;28;20086;-51
2022/01/23 10:28:16;;;;;;;190.00;70.60;;;6.00;86.40;;;;;;5065546;28;20074;-50
2022/01/23 10:30:46;;;;;;;85.47;76.63;;;6.90;86.60;;;;;;5067597;28;20399;-50
2022/01/23 10:33:18;;;;;;;14.45;9.00;;;7.00;84.80;;;;;;5047978;28;20060;-54
2022/01/23 10:35:52;;;;;;;71.10;32.00;;;7.40;86.00;;;;;;5064052;28;20028;-51
2022/01/23 10:38:19;;;;;;;94.57;39.88;;;7.50;84.80;;;;;;5065176;28;20068;-51
2022/01/23 10:40:53;;;;;;;32.63;14.23;;;7.50;85.60;;;;;;5064827;28;20119;-51
2022/01/23 10:48:42;;;;;;;49.80;44.22;;;9.20;89.10;;;;;;5054707;28;20074;-56
2022/01/23 10:51:14;;;;;;;51.72;43.45;;;8.50;83.30;;;;;;5055012;28;20037;-51
2022/01/23 10:54:07;;;;;;;38.05;34.15;;;8.80;84.20;;;;;;5062684;28;20086;-55
2022/01/23 10:56:57;;;;;;;28.08;24.38;;;8.70;84.10;;;;;;5056516;28;20123;-55
2022/01/23 10:59:24;;;;;;;29.60;23.52;;;9.70;82.40;;;;;;5078077;28;20044;-47
2022/01/23 11:02:04;;;;;;;19.88;18.35;;;9.90;81.00;;;;;;5057752;28;20119;-51
2022/01/23 11:04:33;;;;;;;20.00;18.27;;;10.00;81.20;;;;;;5045755;28;20052;-53
2022/01/23 11:07:02;;;;;;;22.15;20.58;;;9.70;83.30;;;;;;5081345;28;20036;-54
2022/01/23 11:09:36;;;;;;;17.15;15.85;;;9.10;83.30;;;;;;5075193;28;20028;-56
2022/01/23 11:12:28;;;;;;;16.48;15.38;;;;;;;;;;5074924;28;20039;-53
2022/01/23 11:17:51;;;;;;;10.35;8.10;;;9.60;82.30;;;;;;5072980;28;20035;-55
2022/01/23 11:20:43;;;;;;;7.82;5.00;;;8.10;85.30;;;;;;5055956;28;20572;-54
2022/01/23 11:23:16;;;;;;;9.35;5.82;;;6.60;85.70;;;;;;5074593;28;20472;-52
2022/01/23 11:25:52;;;;;;;13.48;11.43;;;5.40;89.70;;;;;;5036754;28;20032;-51
2022/01/23 11:28:19;;;;;;;9.10;8.20;;;5.30;90.60;;;;;;5069700;28;20512;-51
2022/01/23 11:30:47;;;;;;;6.53;4.30;;;;;;;;;;5021556;28;20540;-52
2022/01/23 11:33:16;;;;;;;5.95;3.58;;;;;;;;;;5073195;28;20024;-49
2022/01/23 11:35:43;;;;;;;7.97;4.97;;;4.00;91.10;;;;;;5072982;28;20025;-52
2022/01/23 11:38:15;;;;;;;9.68;5.18;;;3.70;92.10;;;;;;5073039;28;20107;-49
2022/01/23 11:54:39;;;;;;;7.95;7.25;;;;;;;;;;5053027;28;20039;-49
2022/01/23 11:57:25;;;;;;;8.60;6.13;;;5.50;99.90;;;;;;5033887;28;20032;-49
2022/01/23 11:59:50;;;;;;;8.52;5.75;;;5.40;91.80;;;;;;5052655;28;20495;-50
2022/01/23 12:02:27;;;;;;;5.18;3.88;;;5.30;93.70;;;;;;5000899;28;20037;-51
2022/01/23 12:05:17;;;;;;;7.25;4.57;;;5.00;92.80;;;;;;5050954;28;20037;-51
2022/01/23 12:07:45;;;;;;;6.22;3.85;;;4.30;94.90;;;;;;5000306;28;20097;-50
2022/01/23 12:10:28;;;;;;;6.28;3.88;;;3.70;99.90;;;;;;5003042;28;20494;-52
2022/01/23 12:16:32;;;;;;;11.43;6.72;;;3.20;94.80;;;;;;4913241;29;20570;-53
2022/01/23 12:19:20;;;;;;;8.82;6.00;;;3.50;95.60;;;;;;4909955;29;20044;-53
2022/01/23 12:21:47;;;;;;;8.60;5.80;;;3.40;95.50;;;;;;4913414;29;20047;-53
2022/01/23 12:24:15;;;;;;;12.32;7.25;;;3.10;95.50;;;;;;4912535;29;20090;-50
2022/01/23 12:26:45;;;;;;;6.43;3.92;;;3.50;95.40;;;;;;4924415;29;20040;-53
2022/01/23 12:29:14;;;;;;;7.90;6.25;;;3.70;95.30;;;;;;4915928;29;20464;-50
2022/01/23 12:31:41;;;;;;;8.90;5.20;;;3.90;95.30;;;;;;4913859;29;20083;-53
2022/01/23 12:34:07;;;;;;;7.97;4.38;;;4.20;94.80;;;;;;4910748;29;20035;-53
2022/01/23 12:36:37;;;;;;;8.15;5.68;;;4.10;93.90;;;;;;4912498;29;20035;-52
2022/01/23 12:39:09;;;;;;;8.93;4.72;;;4.10;94.80;;;;;;4913462;29;20048;-52
2022/01/23 12:41:52;;;;;;;8.90;5.53;;;;;;;;;;4917087;29;20050;-53
2022/01/23 12:44:23;;;;;;;6.68;3.90;;;4.80;99.40;;;;;;4915431;29;20036;-53
2022/01/23 12:46:58;;;;;;;7.47;4.40;;;4.80;94.10;;;;;;4893095;29;20092;-53
2022/01/23 12:49:45;;;;;;;10.77;6.10;;;5.20;93.60;;;;;;4912226;29;20416;-51
2022/01/23 12:52:12;;;;;;;5.80;4.05;;;5.40;93.60;;;;;;4942188;28;20080;-50
2022/01/23 12:54:46;;;;;;;5.35;3.88;;;5.40;93.10;;;;;;5048027;28;20029;-50
2022/01/23 12:57:16;;;;;;;8.55;5.15;;;4.80;93.20;;;;;;5049237;28;20143;-52
2022/01/23 12:59:56;;;;;;;7.63;4.88;;;5.00;93.80;;;;;;5047957;28;20087;-50
2022/01/23 13:02:24;;;;;;;11.32;6.28;;;5.00;93.80;;;;;;5049490;28;20041;-52
2022/01/23 13:04:52;;;;;;;10.82;5.10;;;5.20;93.50;;;;;;5048506;28;20461;-51
2022/01/23 13:10:21;;;;;;;6.82;4.38;;;4.80;93.20;;;;;;5047673;28;20080;-47
2022/01/23 13:18:32;;;;;;;6.43;3.58;;;5.50;92.30;;;;;;4999870;28;20029;-52
2022/01/23 13:32:14;;;;;;;12.10;6.43;;;4.50;93.90;;;;;;5027371;28;20052;-60
2022/01/23 13:34:47;;;;;;;15.25;9.18;;;4.50;94.00;;;;;;5025558;28;20038;-52
2022/01/23 13:37:18;;;;;;;65.85;26.50;;;4.80;93.90;;;;;;5025840;28;20025;-53
2022/01/23 13:39:49;;;;;;;148.15;62.70;;;4.60;93.90;;;;;;5024734;28;20033;-59
2022/01/23 14:02:15;;;;;;;8.32;4.97;;;4.10;94.10;;;;;;5069799;28;20029;-56
2022/01/23 14:04:48;;;;;;;9.25;5.97;;;4.00;94.80;;;;;;5066534;28;20033;-54
2022/01/23 14:07:20;;;;;;;26.08;11.93;;;4.30;95.80;;;;;;5071303;28;20364;-53
2022/01/23 14:09:46;;;;;;;8.38;4.72;;;4.60;95.00;;;;;;5070409;28;20028;-50
2022/01/23 14:12:15;;;;;;;33.22;16.55;;;4.50;95.30;;;;;;5070769;28;20051;-50
2022/01/23 14:14:54;;;;;;;9.32;4.65;;;4.80;94.90;;;;;;5037039;28;20036;-52
2022/01/23 14:17:22;;;;;;;15.55;5.63;;;4.30;94.50;;;;;;5029073;28;20172;-52
2022/01/23 14:20:03;;;;;;;49.83;22.33;;;4.50;94.90;;;;;;5029497;28;20688;-52
2022/01/23 14:22:31;;;;;;;79.90;34.35;;;4.50;94.80;;;;;;5029519;28;20035;-53
2022/01/23 14:25:13;;;;;;;39.00;18.10;;;4.70;94.10;;;;;;5031728;28;20077;-56
2022/01/23 14:27:40;;;;;;;;;;;4.50;94.30;;;;;;5032206;28;20497;-52
2022/01/23 14:30:13;;;;;;;10.82;7.20;;;4.70;94.50;;;;;;5031396;28;19947;-58
2022/01/23 14:32:51;;;;;;;18.55;10.73;;;4.70;95.30;;;;;;5025575;28;20049;-55
2022/01/23 14:35:19;;;;;;;12.50;6.78;;;4.80;95.20;;;;;;5027475;28;20141;-57
2022/01/23 14:37:48;;;;;;;12.85;7.25;;;5.00;96.20;;;;;;5026495;28;20104;-52
2022/01/23 14:40:20;;;;;;;7.53;4.57;;;4.80;95.90;;;;;;5026349;28;20113;-53
2022/01/23 14:43:09;;;;;;;10.35;5.55;;;4.70;95.90;;;;;;5024610;28;20045;-52
2022/01/23 14:45:42;;;;;;;9.80;4.97;;;4.60;94.20;;;;;;4991855;28;20066;-55
2022/01/23 14:48:09;;;;;;;8.43;5.75;;;4.40;93.70;;;;;;5044522;28;20044;-54
2022/01/23 14:50:39;;;;;;;11.07;5.82;;;4.20;94.40;;;;;;5070790;28;20049;-55
2022/01/23 14:53:13;;;;;;;15.65;10.13;;;4.40;94.80;;;;;;5067533;28;20028;-51
2022/01/23 14:55:43;;;;;;;16.65;7.50;;;4.50;93.90;;;;;;5070793;28;20064;-57
2022/01/23 14:58:11;;;;;;;11.57;5.38;;;4.00;93.90;;;;;;5066850;28;20055;-55
2022/01/23 15:00:37;;;;;;;3.80;2.78;;;3.80;94.10;;;;;;5066204;28;20028;-55
2022/01/23 15:03:06;;;;;;;12.88;7.32;;;3.60;94.80;;;;;;5065172;28;20481;-56
2022/01/23 15:05:38;;;;;;;12.18;6.53;;;3.60;94.70;;;;;;5067034;28;20388;-55
2022/01/23 15:08:07;;;;;;;11.55;6.60;;;3.10;94.70;;;;;;5070051;28;20036;-56
2022/01/23 15:10:34;;;;;;;8.00;4.88;;;2.90;95.40;;;;;;5049668;28;20098;-56
2022/01/23 15:12:59;;;;;;;10.80;7.95;;;2.80;95.50;;;;;;5069093;28;20035;-51
2022/01/23 15:15:25;;;;;;;8.57;5.50;;;2.90;95.50;;;;;;5066558;28;20407;-52
2022/01/23 15:17:51;;;;;;;11.38;6.72;;;2.70;95.80;;;;;;5033400;28;20074;-55
2022/01/23 15:20:17;;;;;;;15.07;10.02;;;2.50;95.90;;;;;;5071765;28;20032;-56
2022/01/23 15:22:44;;;;;;;9.18;7.55;;;2.80;95.80;;;;;;5065086;28;20116;-53
2022/01/23 15:25:12;;;;;;;12.30;6.25;;;2.80;95.70;;;;;;5067744;28;20035;-54
2022/01/23 15:27:39;;;;;;;11.10;6.47;;;2.80;95.80;;;;;;5072955;28;20024;-51
2022/01/23 15:30:11;;;;;;;20.58;12.07;;;2.80;95.80;;;;;;5067964;28;20032;-57
2022/01/23 15:32:37;;;;;;;13.73;9.07;;;3.00;95.80;;;;;;5021482;28;20095;-50
2022/01/23 15:35:04;;;;;;;29.75;16.73;;;3.00;95.70;;;;;;5067136;28;20029;-50
2022/01/23 15:37:30;;;;;;;111.22;41.72;;;3.00;95.70;;;;;;5007173;28;20044;-55
2022/01/23 15:39:56;;;;;;;173.50;61.58;;;2.80;95.90;;;;;;5035441;28;20380;-58
2022/01/23 15:42:22;;;;;;;372.90;120.68;;;2.80;96.10;;;;;;5032864;28;20037;-58
2022/01/23 15:44:48;;;;;;;331.65;104.15;;;2.60;96.60;;;;;;5074530;28;20387;-54
2022/01/23 15:47:13;;;;;;;248.80;76.03;;;2.30;96.90;;;;;;5069141;28;20048;-57
2022/01/23 15:49:40;;;;;;;195.68;59.05;;;;;;;;;;5071696;28;20032;-52
2022/01/23 15:52:06;;;;;;;332.08;99.57;;;;;;;;;;5071216;28;20020;-53
2022/01/23 15:54:34;;;;;;;343.67;95.05;;;;;;;;;;5068016;28;20029;-51
2022/01/23 15:57:01;;;;;;;167.23;47.28;;;;;;;;;;5070272;28;20039;-61
2022/01/23 15:59:27;;;;;;;389.67;114.63;;;;;;;;;;5069732;28;20107;-52
2022/01/23 16:01:53;;;;;;;348.05;99.28;;;;;;;;;;5070010;28;20020;-51
2022/01/23 16:04:21;;;;;;;71.00;27.08;;;1.90;99.90;;;;;;5067119;28;20111;-54
2022/01/23 16:06:48;;;;;;;203.48;56.15;;;1.60;98.70;;;;;;5034913;28;20043;-49
2022/01/23 16:09:14;;;;;;;164.35;50.70;;;1.40;99.10;;;;;;5069792;28;20055;-51
2022/01/23 16:11:41;;;;;;;50.42;20.15;;;1.30;99.50;;;;;;5068278;28;20024;-52
2022/01/23 16:14:07;;;;;;;72.10;23.05;;;1.20;99.80;;;;;;5069239;28;20029;-48
2022/01/23 16:16:33;;;;;;;54.95;20.52;;;1.30;99.90;;;;;;5068925;28;20025;-51
2022/01/23 16:18:59;;;;;;;166.95;51.30;;;1.30;99.90;;;;;;5068385;28;20032;-53
2022/01/23 16:21:27;;;;;;;85.25;29.85;;;1.30;99.90;;;;;;5067388;28;20071;-53
2022/01/23 16:23:53;;;;;;;48.67;19.80;;;1.30;99.90;;;;;;5067496;28;20503;-48
2022/01/23 16:26:19;;;;;;;35.00;14.68;;;1.20;99.90;;;;;;5033619;28;20040;-52
2022/01/23 16:28:47;;;;;;;67.97;23.90;;;1.20;99.90;;;;;;5063716;28;20034;-55
2022/01/23 16:31:14;;;;;;;56.38;22.65;;;1.30;99.90;;;;;;5066943;28;20541;-47
2022/01/23 16:33:40;;;;;;;90.13;34.20;;;1.30;99.90;;;;;;5068441;28;20074;-51
2022/01/23 16:36:07;;;;;;;118.72;43.00;;;1.30;99.90;;;;;;5071242;28;20054;-52
2022/01/23 16:38:34;;;;;;;30.92;14.40;;;1.40;99.90;;;;;;5068962;28;20107;-52
2022/01/23 16:41:00;;;;;;;18.85;11.13;;;1.70;99.90;;;;;;5067898;28;20024;-54
2022/01/23 16:43:28;;;;;;;91.32;32.58;;;2.00;99.40;;;;;;5069369;28;20024;-50